Latest Weather Observations for Coles Point

IDS60801

Issued at 4:31 pm CST Saturday 4 July 2015 (issued every 30 minutes, with the page automatically refreshed every 10 minutes)

About weather observations | Map of weather stations | Latest weather observations for SA | Other Formats
Station Details ID: 018191 Name: COLES POINT Lat: -34.37 Lon: 135.37 Height: 28.0 m
Data from the previous 72 hours. | See also: Recent months at Coles Point
Date/Time
CST
Temp
°C
App
Temp
°C
Dew
Point
Rel
Hum
%
Delta-T
°C
Wind Press
QNH
hPa
Press
MSL
hPa
Rain
since 9 am
mm
Dir
 
Spd
km/h
Gust
km/h
Spd
kts
Gust
kts
04/04:30pm 14.6 12.2 11.4 81 1.7 NNW 15 20 8 11 1021.4 1021.4 0.0
04/04:00pm 15.4 12.4 11.8 79 1.9 NNW 19 24 10 13 1021.3 1021.3 0.0
04/03:30pm 15.4 12.2 11.4 77 2.1 NNW 19 24 10 13 1021.3 1021.3 0.0
04/03:00pm 15.5 12.2 11.5 77 2.1 NNW 20 24 11 13 1021.1 1021.1 0.0
04/02:30pm 15.6 12.4 11.4 76 2.3 NW 19 24 10 13 1021.2 1021.2 0.0
04/02:00pm 15.4 12.0 11.2 76 2.2 NNW 20 26 11 14 1021.4 1021.4 0.0
04/01:30pm 15.7 12.2 10.9 73 2.5 NW 20 24 11 13 1021.6 1021.6 0.0
04/01:00pm 15.5 11.8 10.3 71 2.7 NNW 20 26 11 14 1022.0 1022.0 0.0
04/12:30pm 15.5 11.8 9.4 67 3.1 NNW 19 24 10 13 1022.5 1022.5 0.0
04/12:00pm 15.2 12.1 8.9 66 3.2 NNW 15 20 8 11 1022.7 1022.7 0.0
04/11:30am 14.6 12.7 9.2 70 2.8 NNE 9 13 5 7 1023.3 1023.3 0.0
04/11:00am 12.7 10.5 9.3 80 1.7 NE 11 15 6 8 1023.7 1023.7 0.0
04/10:30am 10.4 7.1 8.0 85 1.2 NE 15 19 8 10 1023.9 1023.9 0.0
04/10:00am 9.1 5.3 7.4 89 0.8 NE 17 19 9 10 1024.0 1024.0 0.0
04/09:30am 8.3 4.0 6.9 91 0.6 NE 19 22 10 12 1024.0 1024.0 0.0
04/09:00am 7.7 2.8 7.0 95 0.3 NE 22 24 12 13 1023.8 1023.8 0.0
04/08:30am 7.1 2.6 6.8 98 0.1 NE 20 20 11 11 1023.7 1023.7 0.0
04/08:00am 6.5 1.5 6.4 99 0.0 NE 22 22 12 12 1023.5 1023.5 0.0
04/07:30am 6.5 1.9 6.4 99 0.0 NE 20 22 11 12 1023.4 1023.4 0.0
04/07:00am 7.1 2.6 7.0 99 0.0 NE 20 22 11 12 1023.0 1023.0 0.0
04/06:30am 7.2 2.7 7.1 99 0.0 NE 20 22 11 12 1022.8 1022.8 0.0
04/06:00am 7.6 3.2 7.5 99 0.0 NE 20 22 11 12 1022.7 1022.7 0.0
04/05:30am 7.8 3.7 7.7 99 0.0 NE 19 20 10 11 1022.6 1022.6 0.0
04/05:00am 7.5 3.1 7.4 99 0.0 NE 20 20 11 11 1022.8 1022.8 0.0
04/04:30am 7.7 3.5 7.6 99 0.0 NE 19 20 10 11 1022.8 1022.8 0.0
04/04:00am 7.6 3.4 7.5 99 0.0 NE 19 20 10 11 1022.9 1022.9 0.0
04/03:30am 7.1 2.6 7.0 99 0.0 NE 20 22 11 12 1023.1 1023.1 0.0
04/03:00am 7.1 2.8 7.0 99 0.0 NE 19 20 10 11 1023.2 1023.2 0.0
04/02:30am 7.1 2.8 7.0 99 0.0 NE 19 20 10 11 1023.4 1023.4 0.0
04/02:00am 7.8 3.7 7.7 99 0.0 NE 19 20 10 11 1023.5 1023.5 0.0
04/01:30am 7.3 3.0 7.0 98 0.1 NE 19 22 10 12 1023.6 1023.6 0.0
04/01:00am 7.8 4.0 7.5 98 0.1 ENE 17 19 9 10 1023.8 1023.8 0.0
04/12:30am 7.8 4.0 7.5 98 0.1 ENE 17 19 9 10 1024.0 1024.0 0.0
04/12:00am 8.2 4.5 7.9 98 0.1 NE 17 19 9 10 1024.3 1024.3 0.0
 
Date/Time
CST
Temp
°C
App
Temp
°C
Dew
Point
Rel
Hum
%
Delta-T
°C
Wind Press
QNH
hPa
Press
MSL
hPa
Rain
since 9 am
mm
Dir
 
Spd
km/h
Gust
km/h
Spd
kts
Gust
kts
03/11:30pm 8.7 5.5 8.4 98 0.1 NE 15 17 8 9 1024.6 1024.6 0.0
03/11:00pm 9.4 5.7 9.3 99 0.0 NE 19 22 10 12 1024.7 1024.7 0.0
03/10:30pm 9.1 5.3 9.0 99 0.0 NE 19 22 10 12 1024.7 1024.7 0.0
03/10:00pm 8.4 6.7 8.3 99 0.0 NE 7 11 4 6 1024.9 1024.9 0.0
03/09:30pm 7.8 6.5 7.7 99 0.0 ENE 4 6 2 3 1025.1 1025.1 0.0
03/09:00pm 8.5 7.0 8.4 99 0.0 ENE 6 6 3 3 1025.1 1025.1 0.0
03/08:30pm 9.1 8.5 9.0 99 0.0 NNE 2 6 1 3 1025.3 1025.3 0.0
03/08:00pm 9.2 7.6 8.7 97 0.2 ENE 7 9 4 5 1025.3 1025.3 0.0
03/07:30pm 9.2 8.9 8.6 96 0.3 CALM 0 0 0 0 1025.2 1025.2 0.0
03/07:00pm 9.6 8.5 8.4 92 0.6 NNW 4 6 2 3 1025.2 1025.2 0.0
03/06:30pm 10.9 10.9 9.7 92 0.6 CALM 0 0 0 0 1025.0 1025.0 0.0
03/06:00pm 11.3 10.9 9.9 91 0.7 NNW 2 4 1 2 1024.9 1024.9 0.0
03/05:30pm 12.2 11.0 10.3 88 1.0 NNW 7 9 4 5 1024.9 1024.9 0.0
03/05:00pm 13.9 12.5 10.9 82 1.6 NNW 9 11 5 6 1024.9 1024.9 0.0
03/04:30pm 14.6 13.5 10.8 78 2.0 NW 7 11 4 6 1025.0 1025.0 0.0
03/04:00pm 14.8 13.6 10.4 75 2.3 NW 7 11 4 6 1025.1 1025.1 0.0
03/03:30pm 15.1 13.6 10.7 75 2.3 NW 9 11 5 6 1025.1 1025.1 0.0
03/03:00pm 14.8 13.6 10.4 75 2.3 NNW 7 13 4 7 1025.2 1025.2 0.0
03/02:30pm 14.7 13.1 10.3 75 2.3 NW 9 13 5 7 1025.5 1025.5 0.0
03/02:00pm 14.7 13.1 10.1 74 2.4 NW 9 11 5 6 1025.8 1025.8 0.0
03/01:30pm 15.0 13.6 10.8 76 2.2 NW 9 13 5 7 1026.2 1026.2 0.0
03/01:00pm 14.9 13.4 10.7 76 2.2 NW 9 11 5 6 1026.5 1026.5 0.0
03/12:30pm 14.7 14.2 10.7 77 2.1 NNE 4 11 2 6 1027.1 1027.1 0.0
03/12:00pm 13.9 12.8 10.5 80 1.8 NE 7 9 4 5 1027.6 1027.6 0.0
03/11:30am 13.1 11.2 10.5 84 1.3 NE 11 13 6 7 1028.0 1028.0 0.0
03/11:00am 12.1 9.6 9.8 86 1.2 NE 13 17 7 9 1028.4 1028.4 0.0
03/10:30am 10.8 7.7 8.9 88 0.9 NE 15 19 8 10 1028.5 1028.5 0.0
03/10:00am 9.8 8.1 8.2 90 0.8 ENE 7 11 4 6 1028.8 1028.8 0.0
03/09:30am 9.0 5.7 8.1 94 0.4 NE 15 19 8 10 1028.7 1028.7 0.0
03/09:00am 8.7 4.6 7.9 95 0.4 NE 19 24 10 13 1028.3 1028.3 2.2
03/08:30am 8.6 4.6 8.2 97 0.2 NE 19 22 10 12 1028.1 1028.1 2.2
03/08:00am 8.8 4.8 8.4 97 0.2 NE 19 20 10 11 1027.9 1027.9 2.2
03/07:30am 8.8 5.2 8.5 98 0.1 NNE 17 20 9 11 1027.8 1027.8 2.2
03/07:00am 8.7 4.7 8.4 98 0.1 NNE 19 20 10 11 1027.5 1027.5 2.2
03/06:30am 8.3 4.3 8.2 99 0.0 NNE 19 20 10 11 1027.7 1027.7 2.2
03/06:00am 8.0 4.2 7.7 98 0.1 NE 17 19 9 10 1027.5 1027.5 2.2
03/05:30am 8.2 4.9 7.9 98 0.1 NE 15 19 8 10 1027.7 1027.7 2.2
03/05:00am 8.6 5.3 8.0 96 0.3 NE 15 17 8 9 1027.9 1027.9 2.2
03/04:30am 9.5 6.3 8.4 93 0.5 NE 15 19 8 10 1028.1 1028.1 2.2
03/04:00am 9.2 5.9 8.1 93 0.5 NE 15 19 8 10 1028.3 1028.3 2.2
03/03:30am 9.1 5.8 8.2 94 0.4 NE 15 15 8 8 1028.4 1028.4 2.2
03/03:00am 9.5 6.7 8.6 94 0.4 NE 13 13 7 7 1028.6 1028.6 2.2
03/02:30am 9.8 7.0 8.6 92 0.6 NE 13 15 7 8 1028.8 1028.8 2.2
03/02:00am 10.2 7.5 8.8 91 0.7 NNE 13 13 7 7 1029.1 1029.1 2.2
03/01:30am 10.2 7.8 8.8 91 0.7 NE 11 13 6 7 1029.3 1029.3 2.2
03/01:00am 10.3 7.6 8.9 91 0.7 NE 13 13 7 7 1029.3 1029.3 2.2
03/12:30am 10.2 7.8 8.8 91 0.7 NNE 11 13 6 7 1029.8 1029.8 2.2
03/12:00am 10.0 7.3 8.8 92 0.6 NNE 13 13 7 7 1030.0 1030.0 2.2
 
Date/Time
CST
Temp
°C
App
Temp
°C
Dew
Point
Rel
Hum
%
Delta-T
°C
Wind Press
QNH
hPa
Press
MSL
hPa
Rain
since 9 am
mm
Dir
 
Spd
km/h
Gust
km/h
Spd
kts
Gust
kts
02/11:30pm 9.9 7.1 8.5 91 0.7 NE 13 15 7 8 1029.9 1029.9 2.2
02/11:00pm 9.8 6.9 8.2 90 0.8 NE 13 15 7 8 1030.1 1030.1 2.2
02/10:30pm 10.3 7.5 8.4 88 0.9 NE 13 17 7 9 1030.2 1030.2 2.2
02/10:00pm 10.6 8.3 8.9 89 0.8 NE 11 15 6 8 1030.4 1030.4 2.2
02/09:30pm 10.4 7.7 8.8 90 0.8 NNE 13 13 7 7 1030.4 1030.4 2.2
02/09:00pm 9.3 6.7 7.7 90 0.8 NE 11 11 6 6 1030.4 1030.4 2.2
02/08:30pm 9.6 6.7 8.0 90 0.8 NE 13 13 7 7 1030.2 1030.2 2.2
02/08:00pm 9.5 7.0 8.1 91 0.7 ENE 11 11 6 6 1030.2 1030.2 2.2
02/07:30pm 10.1 7.6 8.4 89 0.8 NE 11 13 6 7 1030.1 1030.1 2.2
02/07:00pm 10.9 8.5 8.8 87 1.0 ENE 11 13 6 7 1030.0 1030.0 2.2
02/06:30pm 12.1 10.4 9.8 86 1.2 NE 9 13 5 7 1029.8 1029.8 2.2
02/06:00pm 11.0 9.0 8.8 86 1.1 ENE 9 9 5 5 1029.6 1029.6 2.2
02/05:30pm 12.3 10.1 9.3 82 1.5 ENE 11 11 6 6 1029.0 1029.0 2.2
02/05:00pm 14.4 13.0 10.8 79 1.9 E 9 13 5 7 1029.1 1029.1 2.2
02/04:30pm 14.9 14.0 11.3 79 1.9 E 7 9 4 5 1029.1 1029.1 2.2
02/04:00pm 15.3 14.1 11.5 78 2.0 E 9 13 5 7 1029.0 1029.0 2.2
02/03:30pm 15.8 15.7 10.8 72 2.6 SE 2 4 1 2 1029.1 1029.1 2.2
02/03:00pm 15.9 15.1 11.1 73 2.6 ESE 6 9 3 5 1028.9 1028.9 2.2
02/02:30pm 16.9 16.0 11.2 69 3.1 NE 7 9 4 5 1028.9 1028.9 2.2
02/02:00pm 15.9 14.3 11.7 76 2.3 ESE 11 15 6 8 1029.0 1029.0 2.2
02/01:30pm 14.9 12.6 11.7 81 1.7 SE 15 20 8 11 1029.4 1029.4 2.2
02/01:00pm 16.3 15.2 12.1 76 2.3 SSE 9 17 5 9 1029.6 1029.6 2.2
02/12:30pm 14.7 14.8 12.6 87 1.1 SW 4 6 2 3 1029.9 1029.9 2.2
02/12:00pm 14.9 16.1 13.8 93 0.6 CALM 0 4 0 2 1030.4 1030.4 2.2
02/11:30am 11.6 10.9 11.3 98 0.2 ENE 6 7 3 4 1030.9 1030.9 2.2
02/11:00am 11.7 12.1 11.2 97 0.3 CALM 0 2 0 1 1030.9 1030.9 2.0
02/10:30am 11.2 10.7 10.6 96 0.3 SSE 4 7 2 4 1030.7 1030.7 1.2
02/10:00am 9.0 6.4 7.8 92 0.6 NE 11 13 6 7 1030.4 1030.4 0.0
02/09:30am 9.3 7.4 7.6 89 0.8 ENE 7 9 4 5 1030.3 1030.3 0.0
02/09:00am 8.1 5.4 7.2 94 0.4 NE 11 15 6 8 1030.0 1030.0 1.4
02/08:30am 7.3 4.1 6.9 97 0.2 ENE 13 17 7 9 1029.5 1029.5 1.4
02/08:00am 7.1 3.5 6.8 98 0.1 NE 15 17 8 9 1029.5 1029.5 1.4
02/07:30am 7.5 4.8 7.4 99 0.0 NNE 11 15 6 8 1029.4 1029.4 1.4
02/07:00am 6.9 3.3 6.6 98 0.1 NE 15 15 8 8 1028.9 1028.9 1.4
02/06:30am 6.8 4.6 6.2 96 0.3 NE 7 9 4 5 1028.8 1028.8 1.4
02/06:00am 7.3 5.2 6.6 95 0.3 ENE 7 11 4 6 1028.6 1028.6 1.4
02/05:30am 8.8 7.4 7.4 91 0.7 N 4 6 2 3 1028.4 1028.4 1.4
02/05:00am 11.2 11.1 9.5 89 0.9 CALM 0 0 0 0 1028.3 1028.3 1.4
02/04:30am 11.9 11.2 10.0 88 1.0 WSW 4 6 2 3 1028.3 1028.3 1.4
02/04:00am 12.6 11.4 10.3 86 1.2 WSW 7 9 4 5 1028.2 1028.2 1.4
02/03:30am 13.8 12.4 11.0 83 1.5 WSW 9 11 5 6 1028.4 1028.4 1.4
02/03:00am 14.0 11.9 11.0 82 1.6 WSW 13 17 7 9 1028.3 1028.3 1.4
02/02:30am 13.7 11.5 10.7 82 1.6 W 13 17 7 9 1028.4 1028.4 1.4
02/02:00am 13.4 12.0 10.9 85 1.3 W 9 13 5 7 1028.2 1028.2 1.4
02/01:30am 13.4 11.9 10.6 83 1.5 W 9 15 5 8 1028.2 1028.2 1.4
02/01:00am 13.7 11.7 10.3 80 1.8 W 11 17 6 9 1028.0 1028.0 1.4
02/12:30am 13.9 12.1 10.7 81 1.7 W 11 15 6 8 1028.3 1028.3 1.4
02/12:00am 13.8 12.1 11.1 84 1.4 W 11 13 6 7 1028.6 1028.6 1.4
 
Date/Time
CST
Temp
°C
App
Temp
°C
Dew
Point
Rel
Hum
%
Delta-T
°C
Wind Press
QNH
hPa
Press
MSL
hPa
Rain
since 9 am
mm
Dir
 
Spd
km/h
Gust
km/h
Spd
kts
Gust
kts
01/11:30pm 13.7 12.6 11.8 88 1.0 W 9 13 5 7 1028.7 1028.7 1.4
01/11:00pm 13.7 11.5 10.9 83 1.5 W 13 19 7 10 1028.9 1028.9 1.4
01/10:30pm 13.5 11.9 11.4 87 1.1 W 11 15 6 8 1028.7 1028.7 1.4
01/10:00pm 14.0 11.4 10.8 81 1.7 W 15 20 8 11 1028.6 1028.6 1.4
01/09:30pm 13.6 12.8 11.7 88 1.0 WNW 7 13 4 7 1028.4 1028.4 1.4
01/09:00pm 13.2 12.5 11.9 92 0.7 NNW 7 11 4 6 1028.4 1028.4 1.2
01/08:30pm 13.6 11.3 11.7 88 1.0 WNW 15 20 8 11 1028.7 1028.7 0.8
01/08:00pm 13.4 12.5 11.3 87 1.1 W 7 11 4 6 1028.6 1028.6 0.8
01/07:30pm 13.1 12.2 10.8 86 1.2 WNW 6 11 3 6 1028.4 1028.4 0.8
01/07:00pm 13.8 10.7 10.2 79 1.9 NW 17 22 9 12 1028.2 1028.2 0.0
01/06:30pm 13.7 10.4 9.6 76 2.1 NW 17 19 9 10 1028.2 1028.2 0.0
01/06:00pm 13.2 10.5 9.1 76 2.1 NW 13 17 7 9 1027.8 1027.8 0.0
01/05:30pm 12.9 10.1 8.4 74 2.2 NW 13 19 7 10 1027.6 1027.6 0.0
01/05:00pm 12.9 9.9 7.8 71 2.5 NW 13 17 7 9 1027.6 1027.6 0.0

Other Formats:

Comma delimited format used in spreadsheet applications
http://www.bom.gov.au/fwo/IDS60801/IDS60801.94658.axf

JavaScript Object Notation format (JSON) in row-major order
http://www.bom.gov.au/fwo/IDS60801/IDS60801.94658.json